createdAt,value
2019-05-22T00:01:52.244Z,99882.06
2019-05-22T00:04:27.536Z,99884.08
2019-05-22T00:07:03.588Z,99884.95
2019-05-22T00:09:38.157Z,99883.34
2019-05-22T00:12:17.604Z,99888.05
2019-05-22T00:14:50.644Z,99888.30
2019-05-22T00:17:32.321Z,99885.77
2019-05-22T00:20:06.708Z,99893.16
2019-05-22T00:22:41.442Z,99905.44
2019-05-22T00:25:20.969Z,99905.83
2019-05-22T00:27:54.726Z,99900.56
2019-05-22T00:30:27.502Z,99906.12
2019-05-22T00:33:01.348Z,99912.75
2019-05-22T00:35:33.840Z,99912.19
2019-05-22T00:38:08.467Z,99912.11
2019-05-22T00:40:51.679Z,99911.33
2019-05-22T00:43:38.004Z,99918.63
2019-05-22T00:46:12.391Z,99923.19
2019-05-22T00:48:46.275Z,99916.44
2019-05-22T00:51:53.546Z,99922.05
2019-05-22T00:54:52.280Z,99927.78
2019-05-22T00:57:47.368Z,99942.57
2019-05-22T01:00:24.556Z,99944.83
2019-05-22T01:02:57.371Z,99945.63
2019-05-22T01:05:31.191Z,99946.16
2019-05-22T01:08:06.477Z,99951.34
2019-05-22T01:10:40.124Z,99956.80
2019-05-22T01:13:13.994Z,99953.27
2019-05-22T01:15:46.828Z,99947.83
2019-05-22T01:18:19.042Z,99952.52
2019-05-22T01:20:53.263Z,99957.08
2019-05-22T01:23:25.699Z,99959.12
2019-05-22T01:25:57.712Z,99960.06
2019-05-22T01:28:30.361Z,99963.63
2019-05-22T01:31:21.355Z,99971.90
2019-05-22T01:34:08.439Z,99977.22
2019-05-22T01:36:45.585Z,99971.15
2019-05-22T01:39:50.197Z,99972.67
2019-05-22T01:42:33.316Z,99981.84
2019-05-22T01:45:08.090Z,99979.72
2019-05-22T01:48:06.043Z,99977.24
2019-05-22T01:50:53.571Z,99971.15
2019-05-22T01:53:37.756Z,99971.09
2019-05-22T01:56:12.842Z,99981.39
2019-05-22T01:58:45.639Z,99976.69
2019-05-22T02:01:20.973Z,99973.91
2019-05-22T02:03:56.767Z,99971.03
2019-05-22T02:06:30.192Z,99972.67
2019-05-22T02:09:30.914Z,99980.59
2019-05-22T02:12:18.599Z,99969.28
2019-05-22T02:14:53.791Z,99974.70
2019-05-22T02:17:33.280Z,99965.23
2019-05-22T02:20:08.967Z,99970.11
2019-05-22T02:22:42.472Z,99975.03
2019-05-22T02:25:15.734Z,99968.04
2019-05-22T02:27:47.989Z,99976.89
2019-05-22T02:30:23.345Z,99979.44
2019-05-22T02:32:55.374Z,99985.34
2019-05-22T02:35:26.826Z,99985.77
2019-05-22T02:37:58.886Z,99982.47
2019-05-22T02:40:35.249Z,99985.69
2019-05-22T02:43:09.433Z,99985.72
2019-05-22T02:45:42.213Z,99995.86
2019-05-22T02:48:15.659Z,99998.64
2019-05-22T02:50:48.853Z,99999.19
2019-05-22T02:53:21.931Z,100012.45
2019-05-22T02:55:53.866Z,100010.88
2019-05-22T02:58:27.686Z,100006.56
2019-05-22T03:01:05.932Z,100008.78
2019-05-22T03:03:38.783Z,100011.31
2019-05-22T03:06:13.902Z,100006.47
2019-05-22T03:09:13.858Z,100010.48
2019-05-22T03:11:59.373Z,100012.61
2019-05-22T03:14:33.046Z,100007.73
2019-05-22T03:17:09.777Z,100011.28
2019-05-22T03:19:45.465Z,100010.42
2019-05-22T03:22:31.230Z,100009.48
2019-05-22T03:25:09.485Z,100015.84
2019-05-22T03:27:45.393Z,100018.44
2019-05-22T03:30:30.429Z,100019.22
2019-05-22T03:33:06.107Z,100014.50
2019-05-22T03:35:50.721Z,100011.05
2019-05-22T03:38:23.218Z,100014.58
2019-05-22T03:40:54.738Z,100007.29
2019-05-22T03:43:29.746Z,100011.83
2019-05-22T03:46:06.597Z,99998.03
2019-05-22T03:48:38.981Z,100003.98
2019-05-22T03:51:15.116Z,100009.09
2019-05-22T03:53:48.606Z,100010.35
2019-05-22T03:56:22.392Z,100002.34
2019-05-22T03:58:55.379Z,100014.10
2019-05-22T04:01:26.751Z,100007.75
2019-05-22T04:03:59.712Z,100011.03
2019-05-22T04:06:33.106Z,100014.42
2019-05-22T04:09:26.941Z,100008.62
2019-05-22T04:11:59.167Z,100019.36
2019-05-22T04:14:40.283Z,100018.50
2019-05-22T04:17:15.161Z,100027.04
2019-05-22T04:19:51.592Z,100028.85
2019-05-22T04:22:24.573Z,100024.23
2019-05-22T04:24:56.730Z,100033.33
2019-05-22T04:27:30.071Z,100033.03
2019-05-22T04:30:04.332Z,100035.84
2019-05-22T04:32:37.537Z,100038.44
2019-05-22T04:35:22.482Z,100041.72
2019-05-22T04:37:57.097Z,100039.84
2019-05-22T04:40:56.917Z,100052.92
2019-05-22T04:43:34.194Z,100054.50
2019-05-22T04:46:09.836Z,100047.67
2019-05-22T04:48:45.868Z,100050.09
2019-05-22T04:51:32.700Z,100054.72
2019-05-22T04:54:04.752Z,100063.44
2019-05-22T04:56:37.419Z,100051.91
2019-05-22T04:59:10.064Z,100068.74
2019-05-22T05:01:42.326Z,100068.21
2019-05-22T05:04:15.156Z,100071.20
2019-05-22T05:06:47.070Z,100070.01
2019-05-22T05:09:18.939Z,100071.97
2019-05-22T05:11:53.491Z,100070.41
2019-05-22T05:14:25.437Z,100067.72
2019-05-22T05:16:58.505Z,100064.54
2019-05-22T05:19:30.541Z,100069.67
2019-05-22T05:22:02.334Z,100084.87
2019-05-22T05:24:33.697Z,100072.22
2019-05-22T05:27:07.285Z,100076.18
2019-05-22T05:29:39.278Z,100074.45
2019-05-22T05:32:10.956Z,100067.16
2019-05-22T05:35:02.767Z,100072.52
2019-05-22T05:37:34.950Z,100078.31
2019-05-22T05:40:39.831Z,100093.20
2019-05-22T05:43:18.919Z,100079.71
2019-05-22T05:45:52.097Z,100091.94
2019-05-22T05:48:25.947Z,100095.54
2019-05-22T05:51:25.696Z,100098.57
2019-05-22T05:54:23.415Z,100105.53
2019-05-22T05:57:00.072Z,100104.59
2019-05-22T05:59:31.589Z,100108.93
2019-05-22T06:02:06.511Z,100116.45
2019-05-22T06:04:40.547Z,100123.15
2019-05-22T06:07:26.867Z,100124.08
2019-05-22T06:10:42.620Z,100130.75
2019-05-22T06:13:14.597Z,100130.34
2019-05-22T06:17:07.577Z,100149.13
2019-05-22T06:19:45.488Z,100149.81
2019-05-22T06:22:19.284Z,100156.70
2019-05-22T06:25:04.682Z,100158.08
2019-05-22T06:27:53.433Z,100165.21
2019-05-22T06:30:46.376Z,100162.20
2019-05-22T06:33:46.082Z,100156.30
2019-05-22T06:36:19.449Z,100164.88
2019-05-22T06:39:17.327Z,100169.92
2019-05-22T06:41:49.885Z,100173.97
2019-05-22T06:44:35.237Z,100174.27
2019-05-22T06:47:10.653Z,100180.29
2019-05-22T06:49:45.520Z,100192.73
2019-05-22T06:52:17.965Z,100178.61
2019-05-22T06:54:50.754Z,100176.81
2019-05-22T06:57:25.821Z,100179.42
2019-05-22T07:00:13.120Z,100184.00
2019-05-22T07:02:36.532Z,100195.74
2019-05-22T07:05:13.131Z,100194.41
2019-05-22T07:07:45.574Z,100197.48
2019-05-22T07:10:17.703Z,100201.07
2019-05-22T07:12:51.132Z,100204.20
2019-05-22T07:15:46.904Z,100216.92
2019-05-22T07:18:20.889Z,100208.05
2019-05-22T07:20:54.792Z,100217.63
2019-05-22T07:23:30.582Z,100216.22
2019-05-22T07:26:03.450Z,100221.18
2019-05-22T07:28:36.719Z,100228.07
2019-05-22T07:31:08.785Z,100231.27
2019-05-22T07:33:40.995Z,100232.33
2019-05-22T07:36:17.157Z,100229.27
2019-05-22T07:38:48.649Z,100238.90
2019-05-22T07:41:20.540Z,100248.56
2019-05-22T07:43:52.479Z,100239.66
2019-05-22T07:46:25.533Z,100231.78
2019-05-22T07:48:58.878Z,100247.58
2019-05-22T07:51:31.424Z,100255.69
2019-05-22T07:54:04.237Z,100255.56
2019-05-22T07:56:37.492Z,100247.80
2019-05-22T07:59:09.453Z,100251.22
2019-05-22T08:01:41.711Z,100253.02
2019-05-22T08:04:16.995Z,100255.62
2019-05-22T08:06:48.976Z,100265.97
2019-05-22T08:09:23.888Z,100256.20
2019-05-22T08:11:56.134Z,100256.34
2019-05-22T08:14:30.070Z,100268.42
2019-05-22T08:17:04.132Z,100266.03
2019-05-22T08:19:36.057Z,100279.44
2019-05-22T08:22:08.192Z,100273.81
2019-05-22T08:24:41.504Z,100273.72
2019-05-22T08:27:14.383Z,100272.62
2019-05-22T08:29:47.173Z,100273.91
2019-05-22T08:32:20.475Z,100270.68
2019-05-22T08:34:52.687Z,100278.11
2019-05-22T08:37:31.568Z,100285.01
2019-05-22T08:40:04.696Z,100281.89
2019-05-22T08:42:38.024Z,100283.63
2019-05-22T08:45:10.403Z,100280.91
2019-05-22T08:47:42.754Z,100292.31
2019-05-22T08:50:16.842Z,100290.88
2019-05-22T08:52:50.592Z,100293.94
2019-05-22T08:55:23.604Z,100303.00
2019-05-22T08:57:56.608Z,100300.91
2019-05-22T09:00:30.387Z,100314.92
2019-05-22T09:03:02.392Z,100300.70
2019-05-22T09:05:34.410Z,100316.27
2019-05-22T09:08:06.565Z,100320.92
2019-05-22T09:10:38.494Z,100317.98
2019-05-22T09:13:10.435Z,100320.34
2019-05-22T09:15:42.528Z,100316.57
2019-05-22T09:18:55.853Z,100324.96
2019-05-22T09:21:47.836Z,100317.14
2019-05-22T09:24:44.764Z,100328.03
2019-05-22T09:27:06.841Z,100331.40
2019-05-22T09:29:41.100Z,100324.31
2019-05-22T09:32:16.556Z,100338.73
2019-05-22T09:35:03.897Z,100337.55
2019-05-22T09:37:47.146Z,100328.87
2019-05-22T09:40:40.577Z,100339.97
2019-05-22T09:43:18.609Z,100341.84
2019-05-22T09:46:13.132Z,100352.44
2019-05-22T09:48:49.533Z,100343.25
2019-05-22T09:51:21.640Z,100349.15
2019-05-22T09:53:53.963Z,100349.66
2019-05-22T09:56:26.849Z,100357.41
2019-05-22T09:58:59.031Z,100357.47
2019-05-22T10:01:33.818Z,100363.42
2019-05-22T10:04:06.231Z,100365.84
2019-05-22T10:06:38.886Z,100370.07
2019-05-22T10:09:50.604Z,100371.11
2019-05-22T10:12:39.815Z,100376.70
2019-05-22T10:15:13.104Z,100381.29
2019-05-22T10:17:58.085Z,100390.64
2019-05-22T10:20:32.368Z,100386.20
2019-05-22T10:23:15.393Z,100392.97
2019-05-22T10:25:40.672Z,100395.68
2019-05-22T10:28:13.571Z,100385.27
2019-05-22T10:30:46.385Z,100397.11
2019-05-22T10:33:18.203Z,100388.27
2019-05-22T10:35:50.140Z,100401.87
2019-05-22T10:38:23.022Z,100406.90
2019-05-22T10:40:58.537Z,100405.03
2019-05-22T10:43:29.108Z,100399.91
2019-05-22T10:46:03.385Z,100403.48
2019-05-22T10:48:35.269Z,100401.87
2019-05-22T10:51:07.294Z,100405.86
2019-05-22T10:53:40.075Z,100400.95
2019-05-22T10:56:12.270Z,100407.21
2019-05-22T10:58:44.239Z,100397.68
2019-05-22T11:01:16.712Z,100408.12
2019-05-22T11:03:54.831Z,100420.11
2019-05-22T11:06:28.008Z,100405.87
2019-05-22T11:09:00.122Z,100413.11
2019-05-22T11:11:32.828Z,100406.66
2019-05-22T11:14:09.296Z,100399.81
2019-05-22T11:16:39.845Z,100411.56
2019-05-22T11:19:12.005Z,100405.66
2019-05-22T11:21:43.819Z,100407.71
2019-05-22T11:24:16.139Z,100405.92
2019-05-22T11:26:50.832Z,100404.70
2019-05-22T11:33:06.736Z,100409.00
2019-05-22T11:35:40.153Z,100411.00
2019-05-22T11:38:13.769Z,100413.84
2019-05-22T11:41:17.460Z,100415.00
2019-05-22T11:43:50.078Z,100427.55
2019-05-22T11:46:22.376Z,100423.90
2019-05-22T11:48:54.986Z,100428.66
2019-05-22T11:51:26.131Z,100422.47
2019-05-22T11:54:08.881Z,100432.84
2019-05-22T11:56:31.754Z,100430.76
2019-05-22T11:59:05.700Z,100429.42
2019-05-22T12:01:49.364Z,100436.76
2019-05-22T12:04:21.979Z,100429.17
2019-05-22T12:06:57.226Z,100442.28
2019-05-22T12:09:30.782Z,100443.55
2019-05-22T12:12:03.611Z,100441.11
2019-05-22T12:14:35.742Z,100436.64
2019-05-22T12:17:09.345Z,100436.34
2019-05-22T12:19:41.431Z,100440.45
2019-05-22T12:22:13.386Z,100433.61
2019-05-22T12:24:46.616Z,100439.81
2019-05-22T12:27:20.009Z,100438.77
2019-05-22T12:29:52.098Z,100430.59
2019-05-22T12:32:23.511Z,100438.84
2019-05-22T12:34:55.757Z,100442.95
2019-05-22T12:37:28.010Z,100443.97
2019-05-22T12:40:02.195Z,100448.77
2019-05-22T12:42:35.737Z,100456.23
2019-05-22T12:45:39.034Z,100454.04
2019-05-22T12:48:12.259Z,100456.82
2019-05-22T12:50:45.750Z,100456.59
2019-05-22T12:53:18.456Z,100457.23
2019-05-22T12:55:50.816Z,100457.05
2019-05-22T12:58:24.725Z,100460.11
2019-05-22T13:00:57.146Z,100456.53
2019-05-22T13:03:30.613Z,100459.95
2019-05-22T13:06:04.042Z,100461.16
2019-05-22T13:08:37.512Z,100466.49
2019-05-22T13:11:11.190Z,100465.62
2019-05-22T13:13:43.254Z,100473.02
2019-05-22T13:16:16.969Z,100467.23
2019-05-22T13:18:51.639Z,100471.84
2019-05-22T13:21:29.997Z,100478.48
2019-05-22T13:24:15.366Z,100474.08
2019-05-22T13:26:48.110Z,100471.37
2019-05-22T13:29:21.566Z,100470.61
2019-05-22T13:31:54.530Z,100467.13
2019-05-22T13:34:29.590Z,100474.76
2019-05-22T13:37:02.425Z,100469.23
2019-05-22T13:39:35.238Z,100474.98
2019-05-22T13:42:07.554Z,100477.01
2019-05-22T13:44:40.818Z,100486.59
2019-05-22T13:47:13.277Z,100486.92
2019-05-22T13:49:46.516Z,100496.23
2019-05-22T13:52:17.882Z,100490.73
2019-05-22T13:54:51.198Z,100502.11
2019-05-22T13:57:25.111Z,100500.22
2019-05-22T13:59:57.194Z,100505.30
2019-05-22T14:02:29.911Z,100509.97
2019-05-22T14:05:02.495Z,100511.94
2019-05-22T14:07:34.543Z,100509.89
2019-05-22T14:10:07.292Z,100505.62
2019-05-22T14:12:40.542Z,100503.98
2019-05-22T14:15:13.943Z,100524.87
2019-05-22T14:17:46.481Z,100507.73
2019-05-22T14:20:23.310Z,100516.40
2019-05-22T14:22:55.379Z,100519.97
2019-05-22T14:25:28.217Z,100516.69
2019-05-22T14:28:00.211Z,100512.50
2019-05-22T14:30:32.504Z,100512.17
2019-05-22T14:33:05.676Z,100516.70
2019-05-22T14:35:48.534Z,100510.00
2019-05-22T14:38:18.351Z,100520.22
2019-05-22T14:40:50.839Z,100518.84
2019-05-22T14:43:23.067Z,100529.44
2019-05-22T14:45:56.302Z,100529.65
2019-05-22T14:49:04.420Z,100533.17
2019-05-22T14:51:44.823Z,100524.84
2019-05-22T14:54:27.588Z,100533.17
2019-05-22T14:57:01.730Z,100535.17
2019-05-22T14:59:34.118Z,100541.58
2019-05-22T15:02:08.382Z,100545.73
2019-05-22T15:05:38.569Z,100542.06
2019-05-22T15:08:13.601Z,100545.73
2019-05-22T15:10:46.743Z,100556.90
2019-05-22T15:13:19.374Z,100561.30
2019-05-22T15:16:10.994Z,100564.83
2019-05-22T15:18:56.731Z,100558.80
2019-05-22T15:22:34.974Z,100556.77
2019-05-22T15:25:12.333Z,100563.95
2019-05-22T15:27:45.065Z,100554.78
2019-05-22T15:30:18.974Z,100559.17
2019-05-22T15:36:50.394Z,100562.82
2019-05-22T15:39:27.164Z,100563.73
2019-05-22T15:42:09.042Z,100567.88
2019-05-22T15:44:47.034Z,100562.36
2019-05-22T15:47:53.230Z,100567.19
2019-05-22T15:50:26.259Z,100568.33
2019-05-22T15:53:06.293Z,100574.67
2019-05-22T15:55:54.691Z,100566.37
2019-05-22T15:58:50.530Z,100570.77
2019-05-22T16:01:36.932Z,100573.54
2019-05-22T16:04:13.376Z,100576.45
2019-05-22T16:06:50.266Z,100568.83
2019-05-22T16:09:25.275Z,100575.25
2019-05-22T16:11:58.407Z,100581.61
2019-05-22T16:14:33.600Z,100577.25
2019-05-22T16:17:08.910Z,100575.34
2019-05-22T16:19:41.509Z,100581.12
2019-05-22T16:22:13.213Z,100587.67
2019-05-22T16:24:44.616Z,100587.76
2019-05-22T16:27:18.540Z,100587.76
2019-05-22T16:29:50.624Z,100597.27
2019-05-22T16:32:26.693Z,100589.54
2019-05-22T16:34:59.426Z,100588.17
2019-05-22T16:37:32.420Z,100592.43
2019-05-22T16:40:05.522Z,100587.67
2019-05-22T16:42:39.096Z,100590.41
2019-05-22T16:45:14.896Z,100598.38
2019-05-22T16:47:49.023Z,100597.55
2019-05-22T16:50:29.442Z,100604.72
2019-05-22T16:53:05.814Z,100604.67
2019-05-22T16:55:41.001Z,100608.17
2019-05-22T16:58:14.160Z,100615.83
2019-05-22T17:00:47.366Z,100607.67
2019-05-22T17:03:22.437Z,100618.34
2019-05-22T17:05:55.172Z,100611.44
2019-05-22T17:08:31.616Z,100623.38
2019-05-22T17:11:05.518Z,100620.69
2019-05-22T17:13:37.685Z,100620.35
2019-05-22T17:16:10.272Z,100617.99
2019-05-22T17:18:47.790Z,100614.88
2019-05-22T17:21:16.852Z,100614.92
2019-05-22T17:23:50.017Z,100620.73
2019-05-22T17:26:23.834Z,100618.98
2019-05-22T17:28:57.917Z,100622.85
2019-05-22T17:31:35.780Z,100630.36
2019-05-22T17:34:30.572Z,100626.41
2019-05-22T17:37:18.502Z,100620.46
2019-05-22T17:39:50.992Z,100620.77
2019-05-22T17:43:06.153Z,100617.84
2019-05-22T17:45:37.561Z,100621.18
2019-05-22T17:48:19.300Z,100622.77
2019-05-22T17:50:53.420Z,100625.80
2019-05-22T17:53:26.275Z,100630.80
2019-05-22T17:55:59.163Z,100635.73
2019-05-22T17:58:32.512Z,100640.20
2019-05-22T18:01:07.579Z,100643.69
2019-05-22T18:03:39.224Z,100642.05
2019-05-22T18:06:11.087Z,100644.18
2019-05-22T18:08:44.518Z,100645.23
2019-05-22T18:11:16.789Z,100656.03
2019-05-22T18:14:04.459Z,100655.71
2019-05-22T18:16:38.675Z,100656.52
2019-05-22T18:19:11.533Z,100660.91
2019-05-22T18:21:43.905Z,100661.96
2019-05-22T18:24:15.397Z,100665.52
2019-05-22T18:26:47.623Z,100668.34
2019-05-22T18:29:20.003Z,100670.61
2019-05-22T18:31:52.222Z,100674.91
2019-05-22T18:34:24.176Z,100679.94
2019-05-22T18:36:56.488Z,100684.37
2019-05-22T18:39:30.122Z,100684.37
2019-05-22T18:42:01.739Z,100686.36
2019-05-22T18:44:34.092Z,100690.24
2019-05-22T18:47:06.293Z,100693.25
2019-05-22T18:50:11.259Z,100699.59
2019-05-22T18:52:39.972Z,100695.36
2019-05-22T18:54:58.736Z,100705.03
2019-05-22T18:57:36.023Z,100708.02
2019-05-22T19:00:08.888Z,100706.43
2019-05-22T19:02:43.995Z,100705.55
2019-05-22T19:05:27.963Z,100717.36
2019-05-22T19:08:00.900Z,100726.78
2019-05-22T19:10:34.422Z,100726.81
2019-05-22T19:13:07.222Z,100732.22
2019-05-22T19:15:39.001Z,100724.16
2019-05-22T19:18:11.248Z,100727.27
2019-05-22T19:20:51.981Z,100726.75
2019-05-22T19:23:30.282Z,100732.60
2019-05-22T19:26:05.691Z,100736.26
2019-05-22T19:28:43.439Z,100737.10
2019-05-22T19:31:09.800Z,100745.87
2019-05-22T19:33:49.900Z,100744.05
2019-05-22T19:36:24.942Z,100745.09
2019-05-22T19:39:04.004Z,100746.80
2019-05-22T19:42:01.341Z,100755.61
2019-05-22T19:44:29.084Z,100755.55
2019-05-22T19:47:08.407Z,100756.84
2019-05-22T19:49:46.153Z,100759.49
2019-05-22T19:52:40.391Z,100757.91
2019-05-22T19:55:11.447Z,100764.75
2019-05-22T19:57:50.757Z,100766.50
2019-05-22T20:00:31.784Z,100764.59
2019-05-22T20:03:09.564Z,100771.11
2019-05-22T20:05:41.138Z,100766.27
2019-05-22T20:08:12.419Z,100769.22
2019-05-22T20:10:44.455Z,100772.29
2019-05-22T20:13:17.885Z,100771.78
2019-05-22T20:15:49.959Z,100770.57
2019-05-22T20:18:21.389Z,100772.95
2019-05-22T20:20:53.763Z,100779.22
2019-05-22T20:23:35.451Z,100780.00
2019-05-22T20:25:59.068Z,100779.85
2019-05-22T20:28:31.549Z,100775.42
2019-05-22T20:31:04.159Z,100778.64
2019-05-22T20:33:36.759Z,100783.02
2019-05-22T20:36:12.616Z,100783.19
2019-05-22T20:38:45.007Z,100783.67
2019-05-22T20:41:17.249Z,100777.49
2019-05-22T20:43:50.724Z,100782.02
2019-05-22T20:46:23.908Z,100782.20
2019-05-22T20:48:56.754Z,100779.61
2019-05-22T20:51:31.187Z,100780.36
2019-05-22T20:54:04.830Z,100781.33
2019-05-22T20:56:38.035Z,100787.50
2019-05-22T20:59:10.672Z,100786.66
2019-05-22T21:01:42.966Z,100785.72
2019-05-22T21:04:16.091Z,100785.78
2019-05-22T21:07:00.537Z,100790.09
2019-05-22T21:09:34.222Z,100788.31
2019-05-22T21:12:06.852Z,100793.11
2019-05-22T21:14:39.398Z,100793.17
2019-05-22T21:17:10.734Z,100797.71
2019-05-22T21:19:43.761Z,100798.02
2019-05-22T21:22:19.995Z,100795.40
2019-05-22T21:24:51.802Z,100789.55
2019-05-22T21:27:23.694Z,100796.58
2019-05-22T21:29:55.914Z,100794.50
2019-05-22T21:32:28.512Z,100788.68
2019-05-22T21:35:00.865Z,100791.39
2019-05-22T21:37:34.247Z,100802.36
2019-05-22T21:40:06.462Z,100803.20
2019-05-22T21:42:41.948Z,100797.17
2019-05-22T21:45:16.447Z,100799.68
2019-05-22T21:47:47.738Z,100792.15
2019-05-22T21:50:20.612Z,100792.15
2019-05-22T21:52:53.336Z,100792.63
2019-05-22T21:55:25.723Z,100791.84
2019-05-22T21:57:58.141Z,100795.98
2019-05-22T22:00:52.529Z,100797.39
2019-05-22T22:03:29.926Z,100797.33
2019-05-22T22:06:01.885Z,100796.70
2019-05-22T22:08:34.496Z,100795.00
2019-05-22T22:11:05.935Z,100798.41
2019-05-22T22:13:39.925Z,100803.89
2019-05-22T22:16:12.031Z,100806.17
2019-05-22T22:18:44.029Z,100808.29
2019-05-22T22:21:16.565Z,100800.70
2019-05-22T22:23:48.570Z,100808.83
2019-05-22T22:26:25.943Z,100808.01
2019-05-22T22:28:55.438Z,100810.60
2019-05-22T22:31:29.289Z,100813.31
2019-05-22T22:34:10.462Z,100810.27
2019-05-22T22:36:42.964Z,100812.80
2019-05-22T22:39:18.173Z,100818.64
2019-05-22T22:41:50.593Z,100814.07
2019-05-22T22:44:22.561Z,100815.79
2019-05-22T22:46:57.637Z,100816.19
2019-05-22T22:49:30.372Z,100811.48
2019-05-22T22:52:01.778Z,100819.98
2019-05-22T22:54:34.738Z,100814.77
2019-05-22T22:57:09.312Z,100822.53
2019-05-22T22:59:41.353Z,100821.77
2019-05-22T23:02:18.343Z,100835.41
2019-05-22T23:04:52.006Z,100830.56
2019-05-22T23:07:26.917Z,100835.50
2019-05-22T23:10:01.988Z,100829.72
2019-05-22T23:12:35.528Z,100832.45
2019-05-22T23:15:09.932Z,100834.57
2019-05-22T23:17:43.026Z,100837.73
2019-05-22T23:20:13.634Z,100835.89
2019-05-22T23:22:43.925Z,100840.82
2019-05-22T23:25:17.259Z,100836.90
2019-05-22T23:27:50.478Z,100843.00
2019-05-22T23:30:22.950Z,100843.87
2019-05-22T23:32:57.548Z,100843.42
2019-05-22T23:35:31.408Z,100848.30
2019-05-22T23:38:03.301Z,100848.42
2019-05-22T23:40:37.694Z,100850.70
2019-05-22T23:43:11.473Z,100856.50
2019-05-22T23:45:43.405Z,100851.97
2019-05-22T23:48:16.429Z,100853.77
2019-05-22T23:50:49.666Z,100851.97
2019-05-22T23:53:24.111Z,100852.89
2019-05-22T23:55:56.964Z,100852.42
2019-05-22T23:58:29.389Z,100848.95
